createdAt,value
2017-12-27T00:00:30.635Z,66.30
2017-12-27T00:03:05.566Z,66.30
2017-12-27T00:05:39.548Z,66.80
2017-12-27T00:08:14.177Z,67.10
2017-12-27T00:10:49.032Z,67.60
2017-12-27T00:13:23.053Z,67.60
2017-12-27T00:15:56.942Z,67.20
2017-12-27T00:18:30.840Z,67.30
2017-12-27T00:21:04.719Z,67.70
2017-12-27T00:23:38.552Z,68.00
2017-12-27T00:26:12.603Z,68.10
2017-12-27T00:28:47.361Z,67.30
2017-12-27T00:31:18.238Z,67.70
2017-12-27T00:33:46.468Z,67.70
2017-12-27T00:36:14.711Z,67.20
2017-12-27T00:38:43.016Z,67.70
2017-12-27T00:41:11.256Z,67.30
2017-12-27T00:43:39.601Z,67.30
2017-12-27T00:46:07.908Z,67.40
2017-12-27T00:48:36.156Z,67.60
2017-12-27T00:51:05.159Z,67.50
2017-12-27T00:53:34.200Z,67.50
2017-12-27T00:56:02.481Z,67.50
2017-12-27T00:58:30.724Z,68.00
2017-12-27T01:00:58.971Z,67.70
2017-12-27T01:03:28.016Z,67.00
2017-12-27T01:05:56.265Z,67.00
2017-12-27T01:08:24.540Z,67.00
2017-12-27T01:10:53.552Z,66.90
2017-12-27T01:13:21.878Z,66.80
2017-12-27T01:15:50.129Z,66.90
2017-12-27T01:18:19.091Z,66.10
2017-12-27T01:20:47.333Z,66.60
2017-12-27T01:23:15.566Z,66.60
2017-12-27T01:25:44.728Z,66.70
2017-12-27T01:28:13.721Z,66.40
2017-12-27T01:30:42.723Z,66.90
2017-12-27T01:33:11.023Z,66.80
2017-12-27T01:35:39.321Z,66.80
2017-12-27T01:38:07.613Z,66.70
2017-12-27T01:40:35.845Z,66.40
2017-12-27T01:43:04.098Z,66.70
2017-12-27T01:45:33.737Z,66.70
2017-12-27T01:48:02.056Z,66.60
2017-12-27T01:50:30.289Z,66.70
2017-12-27T01:52:58.599Z,66.40
2017-12-27T01:55:27.219Z,66.10
2017-12-27T01:57:56.264Z,66.20
2017-12-27T02:00:24.509Z,66.10
2017-12-27T02:02:53.547Z,66.10
2017-12-27T02:05:22.784Z,65.70
2017-12-27T02:07:51.815Z,66.40
2017-12-27T02:10:20.060Z,66.30
2017-12-27T02:12:49.103Z,65.80
2017-12-27T02:15:17.363Z,65.80
2017-12-27T02:17:45.593Z,66.10
2017-12-27T02:20:14.669Z,66.00
2017-12-27T02:22:42.904Z,66.10
2017-12-27T02:25:11.205Z,66.00
2017-12-27T02:27:39.475Z,66.00
2017-12-27T02:30:07.688Z,65.80
2017-12-27T02:32:35.949Z,66.80
2017-12-27T02:35:04.191Z,66.50
2017-12-27T02:37:32.896Z,66.80
2017-12-27T02:40:22.780Z,66.50
2017-12-27T02:42:51.032Z,66.60
2017-12-27T02:45:19.260Z,67.00
2017-12-27T02:47:47.507Z,67.00
2017-12-27T02:50:15.785Z,67.10
2017-12-27T02:52:44.171Z,66.80
2017-12-27T02:55:12.440Z,66.70
2017-12-27T02:57:40.735Z,66.40
2017-12-27T03:00:09.019Z,66.70
2017-12-27T03:02:37.286Z,66.90
2017-12-27T03:05:05.545Z,67.20
2017-12-27T03:07:33.773Z,67.00
2017-12-27T03:10:03.548Z,67.30
2017-12-27T03:12:31.828Z,67.30
2017-12-27T03:15:00.820Z,67.10
2017-12-27T03:17:29.877Z,67.10
2017-12-27T03:19:58.954Z,67.10
2017-12-27T03:22:27.998Z,67.10
2017-12-27T03:24:56.279Z,67.00
2017-12-27T03:27:24.494Z,67.20
2017-12-27T03:29:53.551Z,66.70
2017-12-27T03:32:21.778Z,66.70
2017-12-27T03:34:50.041Z,66.50
2017-12-27T03:37:19.076Z,67.00
2017-12-27T03:39:47.355Z,66.90
2017-12-27T03:42:15.584Z,67.30
2017-12-27T03:44:44.705Z,66.90
2017-12-27T03:47:13.456Z,66.90
2017-12-27T03:49:41.735Z,67.20
2017-12-27T03:52:09.973Z,67.10
2017-12-27T03:54:38.219Z,67.10
2017-12-27T03:57:06.495Z,66.90
2017-12-27T03:59:34.733Z,67.20
2017-12-27T04:02:03.010Z,67.00
2017-12-27T04:04:31.253Z,66.90
2017-12-27T04:06:59.527Z,66.70
2017-12-27T04:09:27.806Z,66.70
2017-12-27T04:11:56.040Z,66.40
2017-12-27T04:14:25.049Z,66.60
2017-12-27T04:16:53.614Z,66.50
2017-12-27T04:19:21.834Z,66.60
2017-12-27T04:21:50.084Z,67.00
2017-12-27T04:24:19.092Z,67.10
2017-12-27T04:26:47.345Z,67.00
2017-12-27T04:29:16.633Z,66.60
2017-12-27T04:31:44.893Z,66.60
2017-12-27T04:34:13.179Z,67.00
2017-12-27T04:36:41.396Z,67.10
2017-12-27T04:39:09.707Z,66.90
2017-12-27T04:41:37.979Z,66.70
2017-12-27T04:44:06.233Z,66.70
2017-12-27T04:46:34.472Z,67.10
2017-12-27T04:49:02.725Z,66.70
2017-12-27T04:51:31.011Z,66.80
2017-12-27T04:53:59.292Z,66.90
2017-12-27T04:56:27.540Z,67.00
2017-12-27T04:58:55.847Z,66.60
2017-12-27T05:01:24.121Z,66.60
2017-12-27T05:03:52.390Z,66.20
2017-12-27T05:06:20.684Z,66.40
2017-12-27T05:08:48.910Z,66.80
2017-12-27T05:11:17.173Z,66.50
2017-12-27T05:13:45.463Z,66.60
2017-12-27T05:16:13.711Z,66.60
2017-12-27T05:18:42.719Z,66.80
2017-12-27T05:21:11.029Z,66.70
2017-12-27T05:23:39.280Z,67.50
2017-12-27T05:26:07.524Z,66.70
2017-12-27T05:28:36.603Z,66.60
2017-12-27T05:31:04.871Z,66.60
2017-12-27T05:33:33.156Z,67.00
2017-12-27T05:36:01.427Z,66.70
2017-12-27T05:38:29.671Z,67.10
2017-12-27T05:40:57.951Z,67.30
2017-12-27T05:43:26.242Z,66.90
2017-12-27T05:45:54.529Z,66.80
2017-12-27T05:48:22.793Z,66.90
2017-12-27T05:50:51.075Z,67.20
2017-12-27T05:53:19.331Z,67.70
2017-12-27T05:55:47.598Z,67.90
2017-12-27T05:58:15.831Z,67.70
2017-12-27T06:00:44.125Z,67.30
2017-12-27T06:03:12.399Z,67.70
2017-12-27T06:05:40.641Z,67.80
2017-12-27T06:08:09.692Z,67.00
2017-12-27T06:10:38.693Z,67.30
2017-12-27T06:13:07.032Z,67.20
2017-12-27T06:15:35.281Z,67.40
2017-12-27T06:18:03.539Z,67.00
2017-12-27T06:20:31.800Z,67.10
2017-12-27T06:23:00.077Z,67.30
2017-12-27T06:25:28.305Z,67.70
2017-12-27T06:27:56.552Z,67.40
2017-12-27T06:30:24.796Z,67.10
2017-12-27T06:32:53.053Z,66.70
2017-12-27T06:35:22.100Z,66.90
2017-12-27T06:37:50.345Z,66.90
2017-12-27T06:40:18.576Z,66.70
2017-12-27T06:42:46.891Z,66.80
2017-12-27T06:45:15.932Z,66.80
2017-12-27T06:47:44.215Z,66.80
2017-12-27T06:50:12.496Z,66.80
2017-12-27T06:52:40.779Z,66.70
2017-12-27T06:55:09.023Z,66.80
2017-12-27T06:57:37.299Z,66.80
2017-12-27T07:00:05.644Z,66.90
2017-12-27T07:02:35.319Z,66.10
2017-12-27T07:05:03.565Z,66.70
2017-12-27T07:07:32.796Z,67.30
2017-12-27T07:10:01.053Z,66.90
2017-12-27T07:12:29.373Z,67.20
2017-12-27T07:14:57.663Z,66.90
2017-12-27T07:17:26.676Z,67.40
2017-12-27T07:19:54.932Z,67.40
2017-12-27T07:22:23.962Z,67.60
2017-12-27T07:24:52.273Z,67.40
2017-12-27T07:27:20.495Z,67.20
2017-12-27T07:29:48.786Z,67.60
2017-12-27T07:32:17.021Z,67.60
2017-12-27T07:34:45.315Z,67.60
2017-12-27T07:37:14.362Z,67.70
2017-12-27T07:39:42.672Z,67.60
2017-12-27T07:42:10.946Z,67.30
2017-12-27T07:44:40.013Z,67.40
2017-12-27T07:47:08.308Z,67.40
2017-12-27T07:49:36.550Z,67.50
2017-12-27T07:52:04.855Z,67.30
2017-12-27T07:54:33.123Z,67.50
2017-12-27T07:57:02.109Z,67.50
2017-12-27T07:59:30.370Z,67.30
2017-12-27T08:01:58.665Z,67.00
2017-12-27T08:04:26.886Z,67.30
2017-12-27T08:06:55.965Z,67.20
2017-12-27T08:09:24.238Z,67.10
2017-12-27T08:11:52.460Z,67.10
2017-12-27T08:14:20.715Z,66.80
2017-12-27T08:16:49.726Z,66.90
2017-12-27T08:19:17.974Z,66.90
2017-12-27T08:21:47.032Z,67.40
2017-12-27T08:24:15.272Z,67.40
2017-12-27T08:26:43.518Z,67.20
2017-12-27T08:29:11.796Z,66.80
2017-12-27T08:31:40.077Z,67.00
2017-12-27T08:34:08.339Z,67.00
2017-12-27T08:36:36.631Z,66.80
2017-12-27T08:39:04.904Z,66.80
2017-12-27T08:41:33.180Z,66.80
2017-12-27T08:44:01.455Z,66.50
2017-12-27T08:46:29.744Z,66.50
2017-12-27T08:48:58.944Z,66.80
2017-12-27T08:51:27.799Z,66.90
2017-12-27T08:53:56.084Z,66.70
2017-12-27T08:56:24.694Z,66.80
2017-12-27T08:58:52.980Z,66.80
2017-12-27T09:01:21.205Z,66.60
2017-12-27T09:03:49.485Z,66.80
2017-12-27T09:06:17.719Z,66.70
2017-12-27T09:08:46.741Z,66.90
2017-12-27T09:11:14.993Z,66.80
2017-12-27T09:13:44.027Z,67.00
2017-12-27T09:16:12.294Z,66.90
2017-12-27T09:18:40.583Z,66.90
2017-12-27T09:21:08.871Z,66.80
2017-12-27T09:23:37.106Z,66.80
2017-12-27T09:26:05.372Z,66.80
2017-12-27T09:28:33.616Z,66.70
2017-12-27T09:31:01.941Z,66.70
2017-12-27T09:33:30.185Z,66.80
2017-12-27T09:35:59.221Z,66.50
2017-12-27T09:38:27.546Z,66.50
2017-12-27T09:40:55.779Z,66.50
2017-12-27T09:43:24.063Z,66.50
2017-12-27T09:45:52.339Z,66.30
2017-12-27T09:48:20.606Z,66.10
2017-12-27T09:50:48.840Z,66.40
2017-12-27T09:53:17.835Z,66.30
2017-12-27T09:55:46.851Z,66.30
2017-12-27T09:58:15.088Z,66.30
2017-12-27T10:00:43.349Z,66.40
2017-12-27T10:03:11.577Z,66.30
2017-12-27T10:05:39.887Z,66.10
2017-12-27T10:08:08.113Z,66.20
2017-12-27T10:10:37.113Z,66.00
2017-12-27T10:13:07.037Z,66.50
2017-12-27T10:15:36.082Z,65.60
2017-12-27T10:18:04.403Z,65.50
2017-12-27T10:20:33.441Z,66.70
2017-12-27T10:23:01.706Z,66.20
2017-12-27T10:25:29.925Z,65.70
2017-12-27T10:27:58.505Z,66.30
2017-12-27T10:30:26.768Z,66.30
2017-12-27T10:32:55.080Z,65.20
2017-12-27T10:35:24.003Z,65.50
2017-12-27T10:37:52.275Z,65.80
2017-12-27T10:40:21.358Z,66.00
2017-12-27T10:42:50.345Z,65.70
2017-12-27T10:45:19.386Z,65.10
2017-12-27T10:47:47.709Z,65.10
2017-12-27T10:50:16.841Z,62.20
2017-12-27T10:52:45.136Z,63.80
2017-12-27T10:55:13.401Z,64.90
2017-12-27T10:57:41.755Z,61.70
2017-12-27T11:00:10.765Z,65.10
2017-12-27T11:02:39.023Z,65.20
2017-12-27T11:05:08.309Z,63.60
2017-12-27T11:07:36.635Z,63.60
2017-12-27T11:10:04.889Z,61.60
2017-12-27T11:12:33.136Z,64.20
2017-12-27T11:15:01.402Z,63.60
2017-12-27T11:17:29.643Z,64.30
2017-12-27T11:19:57.924Z,64.20
2017-12-27T11:22:27.037Z,63.00
2017-12-27T11:24:55.274Z,63.60
2017-12-27T11:27:23.567Z,63.90
2017-12-27T11:29:52.181Z,61.30
2017-12-27T11:32:20.465Z,62.40
2017-12-27T11:34:49.255Z,59.50
2017-12-27T11:37:17.593Z,61.70
2017-12-27T11:39:45.871Z,60.00
2017-12-27T11:42:14.115Z,60.80
2017-12-27T11:44:43.182Z,64.50
2017-12-27T11:47:11.460Z,64.50
2017-12-27T11:49:40.575Z,62.80
2017-12-27T11:52:08.851Z,59.90
2017-12-27T11:54:37.096Z,57.40
2017-12-27T11:57:05.337Z,60.80
2017-12-27T11:59:33.591Z,58.70
2017-12-27T12:02:02.652Z,61.60
2017-12-27T12:04:30.988Z,61.50
2017-12-27T12:06:59.295Z,59.30
2017-12-27T12:09:28.516Z,59.30
2017-12-27T12:11:56.794Z,60.60
2017-12-27T12:14:25.041Z,59.00
2017-12-27T12:16:53.280Z,58.70
2017-12-27T12:19:23.280Z,58.80
2017-12-27T12:21:52.280Z,58.30
2017-12-27T12:24:21.359Z,59.10
2017-12-27T12:26:49.579Z,59.10
2017-12-27T12:29:17.828Z,59.40
2017-12-27T12:31:46.059Z,59.70
2017-12-27T12:34:14.313Z,58.60
2017-12-27T12:36:42.561Z,59.00
2017-12-27T12:39:11.602Z,58.00
2017-12-27T12:41:39.924Z,57.90
2017-12-27T12:44:08.208Z,58.80
2017-12-27T12:46:37.243Z,58.00
2017-12-27T12:49:05.517Z,58.00
2017-12-27T12:51:33.759Z,58.90
2017-12-27T12:54:02.779Z,59.90
2017-12-27T12:56:31.028Z,59.80
2017-12-27T12:59:01.234Z,59.30
2017-12-27T13:01:29.455Z,59.30
2017-12-27T13:03:57.717Z,59.80
2017-12-27T13:06:26.876Z,58.90
2017-12-27T13:08:55.203Z,57.40
2017-12-27T13:11:24.294Z,57.70
2017-12-27T13:13:53.324Z,59.40
2017-12-27T13:16:21.564Z,59.30
2017-12-27T13:18:49.810Z,58.60
2017-12-27T13:21:18.357Z,59.30
2017-12-27T13:23:46.620Z,58.50
2017-12-27T13:26:14.900Z,57.50
2017-12-27T13:28:43.156Z,58.80
2017-12-27T13:31:11.439Z,58.50
2017-12-27T13:33:39.751Z,59.40
2017-12-27T13:36:07.985Z,58.40
2017-12-27T13:38:36.267Z,58.80
2017-12-27T13:41:04.555Z,59.80
2017-12-27T13:43:32.838Z,58.80
2017-12-27T13:46:01.087Z,59.10
2017-12-27T13:48:29.315Z,58.20
2017-12-27T13:50:57.647Z,59.20
2017-12-27T13:53:25.868Z,57.80
2017-12-27T13:55:54.163Z,59.10
2017-12-27T13:58:22.424Z,58.80
2017-12-27T14:00:51.499Z,59.30
2017-12-27T14:03:20.196Z,58.20
2017-12-27T14:05:48.493Z,59.00
2017-12-27T14:08:17.340Z,58.90
2017-12-27T14:10:45.636Z,59.90
2017-12-27T14:13:13.866Z,59.10
2017-12-27T14:15:42.889Z,59.10
2017-12-27T14:18:11.167Z,59.50
2017-12-27T14:20:39.437Z,59.20
2017-12-27T14:23:07.883Z,58.70
2017-12-27T14:25:36.160Z,59.50
2017-12-27T14:28:04.396Z,59.20
2017-12-27T14:30:32.668Z,59.50
2017-12-27T14:33:00.948Z,59.70
2017-12-27T14:35:29.226Z,59.20
2017-12-27T14:37:57.543Z,59.60
2017-12-27T14:40:25.820Z,59.50
2017-12-27T14:42:54.047Z,59.50
2017-12-27T14:45:22.301Z,59.00
2017-12-27T14:47:50.542Z,59.10
2017-12-27T14:50:18.773Z,59.20
2017-12-27T14:52:47.050Z,60.20
2017-12-27T14:55:15.309Z,60.00
2017-12-27T14:57:43.587Z,59.40
2017-12-27T15:00:12.624Z,59.50
2017-12-27T15:02:40.876Z,59.60
2017-12-27T15:05:09.194Z,59.80
2017-12-27T15:07:38.399Z,60.40
2017-12-27T15:10:06.671Z,59.60
2017-12-27T15:12:34.970Z,60.00
2017-12-27T15:15:04.007Z,60.90
2017-12-27T15:17:32.319Z,60.40
2017-12-27T15:20:00.596Z,60.50
2017-12-27T15:22:28.871Z,60.30
2017-12-27T15:24:57.137Z,59.60
2017-12-27T15:27:25.390Z,60.50
2017-12-27T15:29:54.420Z,60.30
2017-12-27T15:32:22.668Z,60.20
2017-12-27T15:34:50.955Z,60.90
2017-12-27T15:37:19.181Z,60.80
2017-12-27T15:39:48.263Z,61.40
2017-12-27T15:42:16.508Z,61.40
2017-12-27T15:44:44.846Z,61.40
2017-12-27T15:47:13.158Z,61.60
2017-12-27T15:49:41.435Z,61.60
2017-12-27T15:52:09.692Z,61.60
2017-12-27T15:54:38.264Z,61.90
2017-12-27T15:57:07.296Z,62.00
2017-12-27T15:59:35.592Z,62.00
2017-12-27T16:02:03.826Z,62.00
2017-12-27T16:04:32.070Z,61.90
2017-12-27T16:07:01.124Z,61.90
2017-12-27T16:09:29.390Z,61.90
2017-12-27T16:11:57.675Z,62.10
2017-12-27T16:14:25.897Z,62.60
2017-12-27T16:16:55.259Z,62.50
2017-12-27T16:19:23.534Z,62.50
2017-12-27T16:21:51.765Z,62.40
2017-12-27T16:24:20.759Z,62.50
2017-12-27T16:26:49.114Z,62.40
2017-12-27T16:29:17.360Z,62.60
2017-12-27T16:31:45.668Z,62.60
2017-12-27T16:34:13.942Z,62.60
2017-12-27T16:36:42.169Z,62.80
2017-12-27T16:39:10.462Z,63.60
2017-12-27T16:41:38.705Z,62.80
2017-12-27T16:44:07.002Z,63.00
2017-12-27T16:46:35.222Z,63.10
2017-12-27T16:49:03.500Z,63.20
2017-12-27T16:51:31.748Z,63.20
2017-12-27T16:53:59.995Z,63.60
2017-12-27T16:56:28.326Z,63.70
2017-12-27T16:58:56.598Z,63.80
2017-12-27T17:01:24.899Z,63.70
2017-12-27T17:03:53.931Z,64.00
2017-12-27T17:06:22.245Z,64.10
2017-12-27T17:08:50.466Z,64.30
2017-12-27T17:11:18.758Z,64.20
2017-12-27T17:13:47.040Z,64.00
2017-12-27T17:16:15.310Z,64.20
2017-12-27T17:18:43.602Z,64.60
2017-12-27T17:21:11.879Z,64.80
2017-12-27T17:23:40.183Z,64.50
2017-12-27T17:26:08.458Z,65.00
2017-12-27T17:28:36.723Z,64.90
2017-12-27T17:31:05.004Z,65.00
2017-12-27T17:33:33.224Z,64.90
2017-12-27T17:36:02.289Z,65.20
2017-12-27T17:38:32.816Z,65.30
2017-12-27T17:41:01.072Z,65.50
2017-12-27T17:43:29.348Z,65.30
2017-12-27T17:45:59.559Z,65.70
2017-12-27T17:48:27.977Z,65.70
2017-12-27T17:50:56.248Z,66.10
2017-12-27T17:53:25.083Z,65.50
2017-12-27T17:55:53.364Z,65.60
2017-12-27T17:58:21.676Z,65.70
2017-12-27T18:00:49.937Z,66.30
2017-12-27T18:03:18.216Z,66.50
2017-12-27T18:05:46.495Z,66.20
2017-12-27T18:08:14.768Z,66.20
2017-12-27T18:10:43.070Z,65.90
2017-12-27T18:13:11.292Z,66.80
2017-12-27T18:15:40.168Z,66.80
2017-12-27T18:18:08.415Z,66.50
2017-12-27T18:20:36.706Z,66.30
2017-12-27T18:23:05.883Z,65.90
2017-12-27T18:25:34.154Z,65.90
2017-12-27T18:28:02.810Z,65.90
2017-12-27T18:30:33.303Z,66.40
2017-12-27T18:33:01.575Z,66.40
2017-12-27T18:35:29.822Z,66.50
2017-12-27T18:37:58.098Z,66.50
2017-12-27T18:40:26.364Z,66.40
2017-12-27T18:42:54.670Z,66.80
2017-12-27T18:45:22.905Z,66.20
2017-12-27T18:47:51.166Z,66.90
2017-12-27T18:50:20.217Z,66.90
2017-12-27T18:52:48.508Z,66.90
2017-12-27T18:55:17.680Z,66.80
2017-12-27T18:57:45.980Z,66.80
2017-12-27T19:00:14.218Z,67.00
2017-12-27T19:02:42.500Z,66.60
2017-12-27T19:05:10.796Z,66.30
2017-12-27T19:07:39.029Z,67.00
2017-12-27T19:10:07.342Z,67.10
2017-12-27T19:12:35.589Z,66.90
2017-12-27T19:15:03.863Z,66.70
2017-12-27T19:17:32.137Z,66.30
2017-12-27T19:20:00.442Z,66.50
2017-12-27T19:22:28.728Z,67.00
2017-12-27T19:24:56.972Z,67.10
2017-12-27T19:27:25.228Z,67.50
2017-12-27T19:29:54.236Z,67.10
2017-12-27T19:32:22.509Z,67.10
2017-12-27T19:34:50.787Z,67.50
2017-12-27T19:37:19.780Z,67.10
2017-12-27T19:39:48.071Z,67.10
2017-12-27T19:42:16.344Z,67.20
2017-12-27T19:44:44.592Z,67.40
2017-12-27T19:47:13.597Z,66.90
2017-12-27T19:49:42.633Z,66.50
2017-12-27T19:52:11.330Z,66.40
2017-12-27T19:54:39.551Z,67.40
2017-12-27T19:57:08.603Z,66.90
2017-12-27T19:59:36.874Z,66.80
2017-12-27T20:02:05.147Z,66.80
2017-12-27T20:04:33.388Z,66.90
2017-12-27T20:07:02.439Z,67.40
2017-12-27T20:09:30.686Z,67.30
2017-12-27T20:11:58.991Z,67.40
2017-12-27T20:14:27.238Z,67.50
2017-12-27T20:16:55.504Z,67.20
2017-12-27T20:19:23.823Z,67.10
2017-12-27T20:21:52.081Z,66.90
2017-12-27T20:24:20.313Z,67.40
2017-12-27T20:26:49.371Z,67.50
2017-12-27T20:29:17.930Z,67.50
2017-12-27T20:31:46.221Z,67.40
2017-12-27T20:34:14.463Z,67.60
2017-12-27T20:36:43.555Z,67.70
2017-12-27T20:39:11.800Z,67.70
2017-12-27T20:41:40.053Z,68.20
2017-12-27T20:44:08.315Z,67.80
2017-12-27T20:46:36.587Z,67.80
2017-12-27T20:49:04.872Z,68.30
2017-12-27T20:51:33.159Z,68.50
2017-12-27T20:54:01.512Z,68.10
2017-12-27T20:56:29.946Z,68.70
2017-12-27T20:58:58.830Z,68.60
2017-12-27T21:01:27.182Z,68.40
2017-12-27T21:03:55.409Z,68.30
2017-12-27T21:06:24.467Z,69.40
2017-12-27T21:08:52.741Z,69.40
2017-12-27T21:11:21.018Z,68.10
2017-12-27T21:13:49.845Z,68.40
2017-12-27T21:16:18.860Z,68.40
2017-12-27T21:18:47.119Z,68.30
2017-12-27T21:21:16.201Z,68.20
2017-12-27T21:23:44.524Z,68.20
2017-12-27T21:26:12.808Z,68.20
2017-12-27T21:28:42.019Z,67.40
2017-12-27T21:31:10.256Z,69.20
2017-12-27T21:33:38.547Z,68.80
2017-12-27T21:36:06.798Z,68.30
2017-12-27T21:38:36.593Z,68.50
2017-12-27T21:41:04.889Z,68.40
2017-12-27T21:43:33.934Z,68.10
2017-12-27T21:46:02.259Z,68.10
2017-12-27T21:48:37.736Z,68.20
2017-12-27T21:51:06.053Z,68.10
2017-12-27T21:53:34.583Z,67.90
2017-12-27T21:56:03.626Z,68.80
2017-12-27T21:58:37.519Z,68.80
2017-12-27T22:01:11.521Z,69.10
2017-12-27T22:03:39.760Z,69.20
2017-12-27T22:06:08.811Z,69.10
2017-12-27T22:08:37.114Z,69.10
2017-12-27T22:11:05.339Z,69.00
2017-12-27T22:13:33.675Z,68.90
2017-12-27T22:16:01.900Z,69.30
2017-12-27T22:18:30.203Z,68.60
2017-12-27T22:21:04.379Z,68.20
2017-12-27T22:23:32.666Z,69.20
2017-12-27T22:26:00.949Z,69.10
2017-12-27T22:28:29.201Z,68.80
2017-12-27T22:30:59.017Z,68.50
2017-12-27T22:33:27.255Z,68.50
2017-12-27T22:35:55.492Z,69.00
2017-12-27T22:38:23.803Z,68.80
2017-12-27T22:40:52.081Z,68.70
2017-12-27T22:43:20.382Z,68.20
2017-12-27T22:45:48.616Z,68.70
2017-12-27T22:48:16.883Z,69.10
2017-12-27T22:50:46.333Z,69.30
2017-12-27T22:53:14.548Z,69.00
2017-12-27T22:55:42.845Z,68.80
2017-12-27T22:58:11.888Z,69.10
2017-12-27T23:00:40.968Z,69.90
2017-12-27T23:03:09.213Z,70.50
2017-12-27T23:05:38.130Z,69.70
2017-12-27T23:08:06.382Z,70.00
2017-12-27T23:10:34.644Z,70.00
2017-12-27T23:13:02.915Z,70.30
2017-12-27T23:15:31.163Z,70.10
2017-12-27T23:18:00.184Z,70.10
2017-12-27T23:20:28.441Z,70.70
2017-12-27T23:22:57.489Z,70.60
2017-12-27T23:25:25.762Z,70.60
2017-12-27T23:27:53.987Z,69.80
2017-12-27T23:30:22.999Z,70.40
2017-12-27T23:32:51.259Z,70.40
2017-12-27T23:35:20.357Z,70.80
2017-12-27T23:37:49.359Z,70.30
2017-12-27T23:40:17.687Z,70.20
2017-12-27T23:42:45.965Z,71.10
2017-12-27T23:45:14.208Z,70.20
2017-12-27T23:47:44.116Z,70.70
2017-12-27T23:50:12.404Z,70.40
2017-12-27T23:52:40.647Z,70.10
2017-12-27T23:55:09.652Z,70.70
2017-12-27T23:57:37.935Z,70.60
